createdAt,value
2018-12-25T00:02:29.090Z,90.60
2018-12-25T00:05:09.691Z,90.60
2018-12-25T00:10:56.321Z,90.70
2018-12-25T00:13:37.723Z,90.60
2018-12-25T00:16:19.031Z,90.40
2018-12-25T00:19:06.071Z,90.40
2018-12-25T00:21:42.701Z,90.60
2018-12-25T00:24:23.649Z,90.60
2018-12-25T00:26:52.185Z,90.50
2018-12-25T00:32:41.217Z,90.30
2018-12-25T00:35:22.446Z,90.40
2018-12-25T00:38:03.693Z,90.40
2018-12-25T00:40:44.736Z,90.60
2018-12-25T00:43:26.351Z,90.60
2018-12-25T00:46:07.531Z,90.60
2018-12-25T00:48:48.844Z,90.60
2018-12-25T00:54:14.562Z,90.60
2018-12-25T00:56:55.774Z,90.70
2018-12-25T00:59:37.955Z,90.70
2018-12-25T01:02:20.090Z,90.60
2018-12-25T01:05:00.928Z,90.60
2018-12-25T01:07:42.227Z,90.60
2018-12-25T01:10:10.748Z,90.60
2018-12-25T01:13:19.580Z,90.60
2018-12-25T01:16:00.135Z,90.40
2018-12-25T01:18:42.101Z,90.50
2018-12-25T01:21:23.367Z,90.60
2018-12-25T01:24:05.251Z,90.50
2018-12-25T01:26:47.684Z,90.60
2018-12-25T01:29:28.569Z,90.60
2018-12-25T01:32:09.579Z,90.50
2018-12-25T01:34:50.751Z,90.60
2018-12-25T01:37:32.539Z,90.60
2018-12-25T01:40:13.396Z,90.60
2018-12-25T01:42:41.917Z,90.70
2018-12-25T01:48:18.215Z,90.50
2018-12-25T01:50:59.255Z,90.50
2018-12-25T01:53:40.690Z,90.60
2018-12-25T01:56:22.082Z,90.60
2018-12-25T01:59:03.410Z,90.60
2018-12-25T02:01:45.236Z,90.60
2018-12-25T02:04:26.402Z,90.60
2018-12-25T02:07:06.086Z,90.60
2018-12-25T02:09:46.854Z,90.50
2018-12-25T02:15:22.257Z,90.50
2018-12-25T02:18:02.718Z,90.50
2018-12-25T02:20:43.944Z,90.50
2018-12-25T02:23:24.578Z,90.40
2018-12-25T02:26:05.871Z,90.40
2018-12-25T02:28:47.004Z,90.40
2018-12-25T02:31:28.474Z,90.40
2018-12-25T02:33:57.011Z,90.40
2018-12-25T02:36:45.132Z,90.40
2018-12-25T02:39:13.641Z,90.30
2018-12-25T02:42:01.517Z,90.40
2018-12-25T02:44:42.637Z,90.40
2018-12-25T02:50:02.694Z,90.40
2018-12-25T02:52:44.674Z,90.40
2018-12-25T02:55:25.513Z,90.40
2018-12-25T02:57:54.034Z,90.40
2018-12-25T03:00:22.568Z,90.40
2018-12-25T03:03:10.689Z,90.40
2018-12-25T03:05:52.084Z,90.40
2018-12-25T03:08:35.366Z,90.40
2018-12-25T03:11:16.241Z,90.40
2018-12-25T03:13:57.310Z,90.40
2018-12-25T03:16:38.569Z,90.40
2018-12-25T03:19:19.860Z,90.40
2018-12-25T03:22:00.518Z,90.40
2018-12-25T03:24:41.933Z,90.40
2018-12-25T03:27:23.216Z,90.40
2018-12-25T03:30:04.283Z,90.30
2018-12-25T03:32:45.626Z,90.40
2018-12-25T03:35:14.139Z,90.40
2018-12-25T03:38:02.262Z,90.30
2018-12-25T03:40:50.394Z,90.30
2018-12-25T03:43:31.771Z,90.20
2018-12-25T03:46:12.525Z,90.30
2018-12-25T03:48:53.561Z,90.30
2018-12-25T03:51:36.500Z,90.30
2018-12-25T03:54:17.220Z,90.30
2018-12-25T03:56:45.726Z,90.30
2018-12-25T03:59:33.630Z,90.30
2018-12-25T04:02:14.739Z,90.30
2018-12-25T04:04:55.974Z,90.20
2018-12-25T04:07:37.424Z,90.30
2018-12-25T04:10:20.811Z,90.30
2018-12-25T04:13:01.945Z,90.20
2018-12-25T04:15:30.548Z,90.20
2018-12-25T04:17:59.062Z,90.10
2018-12-25T04:20:47.184Z,90.10
2018-12-25T04:23:35.315Z,90.10
2018-12-25T04:26:19.057Z,90.20
2018-12-25T04:28:59.829Z,90.10
2018-12-25T04:31:41.222Z,90.10
2018-12-25T04:34:09.771Z,90.40
2018-12-25T04:36:57.963Z,90.00
2018-12-25T04:39:39.033Z,90.10
2018-12-25T04:42:20.608Z,89.90
2018-12-25T04:44:49.125Z,90.00
2018-12-25T04:47:37.246Z,90.00
2018-12-25T04:53:09.802Z,89.70
2018-12-25T04:55:51.365Z,90.10
2018-12-25T04:58:32.202Z,90.10
2018-12-25T05:01:13.695Z,90.20
2018-12-25T05:03:54.778Z,90.10
2018-12-25T05:06:35.756Z,90.20
2018-12-25T05:09:16.935Z,90.10
2018-12-25T05:11:58.315Z,90.10
2018-12-25T05:14:39.003Z,90.10
2018-12-25T05:17:20.434Z,90.10
2018-12-25T05:19:48.949Z,90.20
2018-12-25T05:22:37.073Z,90.20
2018-12-25T05:25:25.186Z,90.20
2018-12-25T05:28:05.942Z,90.10
2018-12-25T05:30:46.831Z,90.20
2018-12-25T05:33:27.202Z,90.10
2018-12-25T05:35:55.964Z,90.10
2018-12-25T05:38:44.090Z,90.00
2018-12-25T05:41:25.483Z,90.00
2018-12-25T05:44:06.700Z,90.00
2018-12-25T05:46:48.083Z,90.00
2018-12-25T05:49:29.294Z,90.10
2018-12-25T05:52:12.619Z,90.10
2018-12-25T05:54:53.851Z,90.10
2018-12-25T05:57:35.084Z,90.10
2018-12-25T06:00:17.256Z,90.00
2018-12-25T06:02:58.333Z,90.10
2018-12-25T06:05:26.861Z,90.10
2018-12-25T06:08:14.862Z,90.00
2018-12-25T06:10:55.520Z,90.00
2018-12-25T06:13:36.646Z,90.00
2018-12-25T06:16:05.312Z,90.00
2018-12-25T06:18:53.554Z,90.00
2018-12-25T06:21:41.751Z,89.90
2018-12-25T06:30:30.579Z,88.60
2018-12-25T06:33:11.987Z,89.50
2018-12-25T06:35:40.669Z,89.80
2018-12-25T06:38:28.923Z,89.70
2018-12-25T06:43:57.363Z,90.10
2018-12-25T06:46:38.911Z,89.80
2018-12-25T06:49:07.441Z,89.80
2018-12-25T06:51:35.960Z,89.90
2018-12-25T06:57:25.056Z,89.60
2018-12-25T07:00:12.917Z,89.60
2018-12-25T07:02:55.054Z,89.70
2018-12-25T07:05:36.011Z,89.60
2018-12-25T07:08:18.438Z,89.70
2018-12-25T07:11:00.353Z,89.60
2018-12-25T07:13:41.136Z,89.70
2018-12-25T07:16:23.459Z,89.80
2018-12-25T07:19:04.364Z,89.90
2018-12-25T07:21:46.180Z,89.80
2018-12-25T07:24:14.923Z,89.80
2018-12-25T07:29:56.288Z,89.50
2018-12-25T07:32:37.482Z,89.70
2018-12-25T07:35:18.656Z,89.50
2018-12-25T07:37:47.272Z,89.40
2018-12-25T07:43:41.447Z,89.50
2018-12-25T07:46:22.719Z,89.70
2018-12-25T07:49:04.260Z,89.70
2018-12-25T07:51:46.456Z,89.70
2018-12-25T07:54:27.659Z,89.50
2018-12-25T07:57:08.862Z,89.40
2018-12-25T08:02:35.074Z,89.30
2018-12-25T08:13:45.829Z,89.40
2018-12-25T08:16:14.550Z,89.30
2018-12-25T08:18:43.319Z,89.30
2018-12-25T08:27:16.508Z,89.20
2018-12-25T08:36:01.645Z,89.10
2018-12-25T08:41:27.736Z,88.80
2018-12-25T08:47:02.586Z,88.80
2018-12-25T08:49:43.228Z,88.70
2018-12-25T08:52:24.589Z,88.70
2018-12-25T08:55:06.214Z,88.70
2018-12-25T08:57:48.442Z,88.90
2018-12-25T09:03:15.330Z,88.80
2018-12-25T09:05:45.040Z,88.90
2018-12-25T09:08:35.049Z,88.90
2018-12-25T09:11:16.488Z,88.80
2018-12-25T09:16:41.563Z,88.70
2018-12-25T09:19:22.919Z,88.70
2018-12-25T09:24:54.160Z,88.30
2018-12-25T09:27:42.810Z,88.30
2018-12-25T09:30:30.688Z,88.40
2018-12-25T09:36:02.865Z,88.00
2018-12-25T09:38:45.590Z,88.40
2018-12-25T09:41:27.175Z,88.40
2018-12-25T09:44:07.633Z,88.60
2018-12-25T09:46:48.611Z,88.70
2018-12-25T09:49:30.718Z,88.60
2018-12-25T09:57:52.055Z,88.40
2018-12-25T10:09:56.024Z,88.50
2018-12-25T10:12:37.521Z,88.20
2018-12-25T10:21:18.043Z,88.20
2018-12-25T10:41:54.728Z,88.20
2018-12-25T10:47:33.052Z,88.10
2018-12-25T10:53:03.637Z,87.70
2018-12-25T10:55:32.157Z,88.60
2018-12-25T11:13:23.121Z,87.60
2018-12-25T11:18:49.285Z,87.60
2018-12-25T11:21:30.643Z,87.40
2018-12-25T11:24:11.776Z,87.30
2018-12-25T11:38:25.273Z,87.50
2018-12-25T11:46:54.330Z,87.30
2018-12-25T11:49:36.600Z,87.30
2018-12-25T11:57:56.643Z,87.40
2018-12-25T12:06:36.658Z,87.30
2018-12-25T12:18:22.077Z,86.90
2018-12-25T12:26:57.923Z,87.10
2018-12-25T12:29:26.615Z,86.90
2018-12-25T12:59:59.311Z,86.80
2018-12-25T13:36:44.598Z,86.60
2018-12-25T13:50:58.782Z,86.60
2018-12-25T13:53:27.808Z,86.60
2018-12-25T13:56:39.204Z,86.50
2018-12-25T14:01:28.930Z,86.60
2018-12-25T14:04:16.811Z,86.60
2018-12-25T14:06:57.638Z,86.60
2018-12-25T14:09:38.699Z,86.20
2018-12-25T14:12:21.142Z,85.30
2018-12-25T14:15:02.415Z,85.40
2018-12-25T14:17:30.944Z,85.30
2018-12-25T14:40:58.832Z,85.90
2018-12-25T14:49:24.936Z,86.00
2018-12-25T14:54:45.615Z,86.10
2018-12-25T14:57:14.137Z,86.10
2018-12-25T15:00:02.023Z,86.20
2018-12-25T15:05:32.591Z,86.10
2018-12-25T15:08:13.678Z,86.20
2018-12-25T15:10:54.762Z,86.20
2018-12-25T15:22:15.995Z,86.10
2018-12-25T15:27:47.252Z,86.10
2018-12-25T15:30:28.334Z,86.10
2018-12-25T15:33:09.656Z,86.20
2018-12-25T15:53:26.570Z,86.00
2018-12-25T15:56:07.623Z,85.80
2018-12-25T15:58:48.555Z,85.90
2018-12-25T16:01:29.439Z,85.90
2018-12-25T16:04:12.212Z,86.00
2018-12-25T16:06:52.975Z,86.00
2018-12-25T16:09:36.349Z,86.00
2018-12-25T16:18:05.373Z,86.10
2018-12-25T16:26:30.929Z,86.20
2018-12-25T16:28:59.755Z,86.30
2018-12-25T16:31:28.291Z,86.10
2018-12-25T16:34:16.196Z,86.30
2018-12-25T16:45:59.450Z,86.50
2018-12-25T16:48:47.406Z,86.40
2018-12-25T16:51:35.317Z,86.50
2018-12-25T17:05:39.825Z,86.50
2018-12-25T17:11:04.207Z,86.50
2018-12-25T17:16:54.486Z,86.50
2018-12-25T17:36:41.187Z,86.50
2018-12-25T17:48:09.518Z,86.50
2018-12-25T18:06:28.035Z,86.30
2018-12-25T18:23:29.330Z,86.20
2018-12-25T18:26:17.989Z,86.40
2018-12-25T18:31:51.496Z,86.30
2018-12-25T18:54:51.302Z,86.10
2018-12-25T19:03:46.587Z,86.10
2018-12-25T19:06:15.179Z,86.10
2018-12-25T19:24:53.658Z,86.60
2018-12-25T19:53:50.768Z,86.50
2018-12-25T20:05:12.206Z,86.30
2018-12-25T21:00:42.931Z,86.40
2018-12-25T21:34:30.443Z,86.80
2018-12-25T21:37:11.814Z,86.70
2018-12-25T21:39:52.930Z,86.80
2018-12-25T21:42:34.102Z,86.90
2018-12-25T21:47:52.481Z,86.90
2018-12-25T21:53:23.784Z,87.20
2018-12-25T22:04:57.574Z,87.10
2018-12-25T22:07:38.029Z,87.20
2018-12-25T22:10:19.687Z,87.30
2018-12-25T22:13:00.751Z,87.20
2018-12-25T22:15:43.410Z,87.10
2018-12-25T22:21:03.436Z,87.00
2018-12-25T22:35:49.540Z,87.10
2018-12-25T22:38:29.908Z,87.10
2018-12-25T22:41:11.301Z,87.10
2018-12-25T22:43:54.755Z,87.10
2018-12-25T22:55:35.602Z,87.00
2018-12-25T23:01:22.230Z,87.60
2018-12-25T23:04:03.302Z,87.00
2018-12-25T23:06:47.789Z,86.90
2018-12-25T23:09:28.979Z,86.70
2018-12-25T23:12:09.838Z,86.80
2018-12-25T23:14:50.718Z,86.80
2018-12-25T23:20:28.703Z,86.80
2018-12-25T23:23:05.995Z,86.80
2018-12-25T23:28:32.203Z,86.80
2018-12-25T23:31:00.735Z,86.80
2018-12-25T23:36:46.794Z,86.60
2018-12-25T23:39:15.311Z,86.80
2018-12-25T23:47:39.451Z,86.70
2018-12-25T23:53:10.592Z,86.50
2018-12-25T23:55:53.095Z,86.70
